Baltica — SNGH — position and weather

sailwx.info

Track history (hours):
 
Tides and Currents Weather Stations Pressure Air Temp Water Temp Dewpoint Dewpoint Depression Visibility Wind Speed Wind Dir Waves Ship Positions

Oceanographic research ship Baltica (Poland)

Detailed information on ship capabilities available from University of Delaware's Ocean Information Center.

Last reported at 2019-Feb-23 15:09 UTC. Time now 2019-Feb-23 17:04 UTC.
Position N 55°26' E 016°52'.

Length 41 m; beam 9 m.

Type: Fishing. MMSI: 261061000.

Date/timePositionNaut miles runAvg speedWind from/ knotsBaromVisibWave heightAir tempDewpointWater temp
2019-Feb-23 15:09N 55°26' E 016°52'1 0.9
2019-Feb-23 13:51N 55°25' E 016°50'0 0.8
2019-Feb-23 13:27N 55°25' E 016°50'0 0.7
2019-Feb-23 13:00N 55°25' E 016°49'0 0.7
2019-Feb-23 12:27N 55°25' E 016°49'1 2.0
2019-Feb-23 12:00N 55°25' E 016°48'2 2.2
2019-Feb-23 11:05N 55°24' E 016°44'5 4.5
2019-Feb-23 10:02N 55°20' E 016°40'3 7.0
2019-Feb-23 09:39N 55°19' E 016°36'16 6.7
2019-Feb-23 07:18N 55°14' E 016°10'6 5.8
2019-Feb-23 06:15N 55°14' E 015°59'1 0.4
2019-Feb-23 03:21N 55°13' E 015°58'14 2.3
2019-Feb-22 21:15N 55°04' E 015°40'35 0.9
2019-Feb-21 05:51N 54°41' E 014°54'  
2019-Feb-18 07:37N 54°46' E 016°55'2 3.4
2019-Feb-18 06:59N 54°46' E 016°51'2 2.6
2019-Feb-18 06:09N 54°44' E 016°49'1 8.3
2019-Feb-18 05:59N 54°43' E 016°50'1 1.5
2019-Feb-18 05:27N 54°42' E 016°50'0 0.4
2019-Feb-18 04:14N 54°42' E 016°50'12 0.8
2019-Feb-17 13:49N 54°53' E 016°49'47 1.9
2019-Feb-16 13:29N 54°54' E 018°11'6 6.0
2019-Feb-16 12:26N 54°53' E 018°22'3 8.1
2019-Feb-16 12:00N 54°51' E 018°27'4 7.9
2019-Feb-16 11:30N 54°48' E 018°32'1 2.3
2019-Feb-16 11:00N 54°49' E 018°31'1 2.9
2019-Feb-16 10:31N 54°50' E 018°30'3 5.1
2019-Feb-16 10:00N 54°49' E 018°33'2 3.1
2019-Feb-16 09:31N 54°49' E 018°35'1 2.9
2019-Feb-16 09:00N 54°50' E 018°36'2 3.2
2019-Feb-16 08:30N 54°52' E 018°34'0 0.5
2019-Feb-16 08:01N 54°51' E 018°34'0 0.4
2019-Feb-16 07:31N 54°51' E 018°34'1 1.3
2019-Feb-16 07:01N 54°51' E 018°36'2 3.3
2019-Feb-16 06:30N 54°53' E 018°34'1 1.8
2019-Feb-16 06:01N 54°52' E 018°34'3 5.7
2019-Feb-16 05:31N 54°49' E 018°34'2 3.2
2019-Feb-16 05:01N 54°48' E 018°32'0 0.4
2019-Feb-16 04:31N 54°48' E 018°32'0 0.4
2019-Feb-16 04:01N 54°48' E 018°32'0 0.5
2019-Feb-16 03:31N 54°48' E 018°31'4 7.1
2019-Feb-16 03:01N 54°46' E 018°37'0 0.1
2019-Feb-16 02:30N 54°46' E 018°36'0 0.6
2019-Feb-16 02:01N 54°47' E 018°36'0 0.6
2019-Feb-16 01:30N 54°47' E 018°36'0 0.6
2019-Feb-16 01:01N 54°47' E 018°35'0 0.7
2019-Feb-16 00:31N 54°47' E 018°35'0 0.7
2019-Feb-16 00:00N 54°47' E 018°34'0 0.7
2019-Feb-15 23:30N 54°47' E 018°34'0 0.7
2019-Feb-15 23:01N 54°48' E 018°33'0 0.8
2019-Feb-15 22:31N 54°48' E 018°33'0 0.7
2019-Feb-15 22:00N 54°48' E 018°32'0 0.6
2019-Feb-15 21:31N 54°48' E 018°32'2 3.0
2019-Feb-15 21:00N 54°48' E 018°34'3 6.4
2019-Feb-15 20:30N 54°46' E 018°39'0 0.7
2019-Feb-15 20:01N 54°46' E 018°38'0 0.7
2019-Feb-15 19:31N 54°46' E 018°38'0 0.7
2019-Feb-15 19:01N 54°46' E 018°37'0 0.7
2019-Feb-15 18:31N 54°47' E 018°37'0 0.8
2019-Feb-15 18:01N 54°47' E 018°36'0 0.9
2019-Feb-15 17:30N 54°47' E 018°35'0 0.8
2019-Feb-15 17:01N 54°47' E 018°35'0 0.9
2019-Feb-15 16:30N 54°48' E 018°34'1 2.0
2019-Feb-15 16:00N 54°47' E 018°36'2 4.4
2019-Feb-15 15:30N 54°46' E 018°39'2 4.4
2019-Feb-15 15:01N 54°46' E 018°43'0 0.8
2019-Feb-15 14:30N 54°46' E 018°44'0 1.0
2019-Feb-15 14:00N 54°46' E 018°43'1 1.7
2019-Feb-15 13:31N 54°47' E 018°43'2 3.5
2019-Feb-15 13:01N 54°49' E 018°42'2 4.2
2019-Feb-15 12:30N 54°47' E 018°43'1 2.7
2019-Feb-15 12:01N 54°45' E 018°44'2 4.7
2019-Feb-15 11:30N 54°44' E 018°47'4 7.9
2019-Feb-15 11:00N 54°42' E 018°53'4 8.2
2019-Feb-15 10:31N 54°40' E 018°59'4 8.1
2019-Feb-15 10:00N 54°37' E 019°04'4 8.3
2019-Feb-15 09:30N 54°36' E 019°11'2 3.2
2019-Feb-15 09:00N 54°35' E 019°13'1 2.8
2019-Feb-15 08:30N 54°35' E 019°11'1 2.1
2019-Feb-15 08:00N 54°35' E 019°09'3 5.6
2019-Feb-15 07:30N 54°36' E 019°13'1 1.9
2019-Feb-15 07:00N 54°36' E 019°12'2 3.1
2019-Feb-15 06:30N 54°36' E 019°09'1 1.7
2019-Feb-15 06:00N 54°35' E 019°08'3 6.2
2019-Feb-15 05:30N 54°32' E 019°08'4 7.4
2019-Feb-15 05:01N 54°28' E 019°08'3 6.5
2019-Feb-15 04:30N 54°25' E 019°08'0 0.5
2019-Feb-15 04:00N 54°25' E 019°08'0 0.7
2019-Feb-15 03:30N 54°25' E 019°07'0 0.7
2019-Feb-15 03:00N 54°25' E 019°07'0 0.7
2019-Feb-15 02:30N 54°26' E 019°06'0 0.6
2019-Feb-15 02:00N 54°26' E 019°06'0 0.5
2019-Feb-15 01:30N 54°26' E 019°05'0 0.6
2019-Feb-15 01:00N 54°26' E 019°05'0 0.5
2019-Feb-15 00:30N 54°26' E 019°04'0 0.4
2019-Feb-15 00:00N 54°26' E 019°04'0 0.3
2019-Feb-14 23:31N 54°26' E 019°04'0 0.3
2019-Feb-14 23:00N 54°26' E 019°04'0 0.3
2019-Feb-14 22:30N 54°26' E 019°03'0 0.3
2019-Feb-14 22:00N 54°26' E 019°03'0 0.4
2019-Feb-14 21:30N 54°26' E 019°03'0 0.5
2019-Feb-14 21:01N 54°26' E 019°02'0 0.4
2019-Feb-14 20:30N 54°26' E 019°02'1 1.6
2019-Feb-14 20:00N 54°25' E 019°03'4 7.3
2019-Feb-14 19:30N 54°23' E 019°08'0 0.5
2019-Feb-14 19:00N 54°23' E 019°07'0 0.7
2019-Feb-14 18:31N 54°23' E 019°07'0 0.8
2019-Feb-14 18:00N 54°24' E 019°06'0 0.9
2019-Feb-14 17:30N 54°24' E 019°06'0 0.9
2019-Feb-14 17:00N 54°24' E 019°05'0 0.9
2019-Feb-14 16:30N 54°24' E 019°04'0 0.9
2019-Feb-14 16:01N 54°24' E 019°04'1 1.4
2019-Feb-14 15:31N 54°24' E 019°02'2 3.2
2019-Feb-14 15:00N 54°25' E 018°60'1 3.0
2019-Feb-14 14:30N 54°24' E 019°02'1 1.7
2019-Feb-14 14:00N 54°24' E 019°04'3 6.7
2019-Feb-14 13:30N 54°23' E 019°09'4 7.7
2019-Feb-14 13:00N 54°23' E 019°16'0 0.9
2019-Feb-14 12:30N 54°23' E 019°15'2 3.2
2019-Feb-14 12:01N 54°23' E 019°12'2 4.4
2019-Feb-14 11:30N 54°23' E 019°16'3 5.1
2019-Feb-14 11:00N 54°25' E 019°20'1 2.5
2019-Feb-14 10:30N 54°25' E 019°18'2 3.2
2019-Feb-14 10:00N 54°24' E 019°15'0 0.4
2019-Feb-14 09:29N 54°24' E 019°15'0 0.7
2019-Feb-14 09:00N 54°25' E 019°15'1 2.1
2019-Feb-14 08:30N 54°25' E 019°16'2 3.4
2019-Feb-14 08:00N 54°25' E 019°19'2 4.4
2019-Feb-14 07:30N 54°24' E 019°16'1 2.9
2019-Feb-14 07:00N 54°25' E 019°13'2 3.3
2019-Feb-14 06:30N 54°25' E 019°10'1 2.3
2019-Feb-14 06:01N 54°24' E 019°12'0 0.7
2019-Feb-14 05:30N 54°24' E 019°11'0 0.9
2019-Feb-14 05:00N 54°24' E 019°11'0 1.0
2019-Feb-14 04:30N 54°25' E 019°10'0 0.9
2019-Feb-14 04:01N 54°25' E 019°09'2 2.1
2019-Feb-14 03:00N 54°23' E 019°11'0 0.8
2019-Feb-14 02:30N 54°23' E 019°11'0 0.8
2019-Feb-14 02:00N 54°23' E 019°10'0 0.9
2019-Feb-14 01:30N 54°24' E 019°10'0 0.9
2019-Feb-14 01:00N 54°24' E 019°09'0 0.9
2019-Feb-14 00:30N 54°24' E 019°08'0 0.8
2019-Feb-14 00:00N 54°24' E 019°08'0 0.8
2019-Feb-13 23:30N 54°24' E 019°07'0 0.8
2019-Feb-13 23:00N 54°24' E 019°06'0 0.8
2019-Feb-13 22:30N 54°25' E 019°06'0 0.8
2019-Feb-13 22:00N 54°25' E 019°05'0 0.9
2019-Feb-13 21:30N 54°25' E 019°04'0 0.9
2019-Feb-13 21:00N 54°25' E 019°04'0 0.9
2019-Feb-13 20:30N 54°25' E 019°03'0 0.8
2019-Feb-13 20:00N 54°26' E 019°02'0 0.9
2019-Feb-13 19:30N 54°26' E 019°02'0 0.7
2019-Feb-13 19:00N 54°26' E 019°02'2 3.3
2019-Feb-13 18:30N 54°26' E 019°05'1 2.9
2019-Feb-13 18:00N 54°26' E 019°08'1 2.6
2019-Feb-13 17:30N 54°26' E 019°10'1 2.1
2019-Feb-13 17:00N 54°26' E 019°12'1 1.9
2019-Feb-13 16:30N 54°26' E 019°13'1 1.7
2019-Feb-13 16:00N 54°26' E 019°15'1 1.4
2019-Feb-13 15:30N 54°26' E 019°16'  
Track history (hours):
 
Tides and Currents Weather Stations Pressure Air Temp Water Temp Dewpoint Dewpoint Depression Visibility Wind Speed Wind Dir Waves Ship Positions

Oceanographic research ship Baltica (Poland)

Detailed information on ship capabilities available from University of Delaware's Ocean Information Center.

Last reported at 2019-Feb-23 15:09 UTC. Time now 2019-Feb-23 17:05 UTC.
Position N 55°26' E 016°52'.

Length 41 m; beam 9 m.

Type: Fishing. MMSI: 261061000.

Date/timePositionNaut miles runAvg speedWind from/ knotsBaromVisibWave heightAir tempDewpointWater temp
2019-Feb-23 15:09N 55°26' E 016°52'1 0.9
2019-Feb-23 13:51N 55°25' E 016°50'0 0.8
2019-Feb-23 13:27N 55°25' E 016°50'0 0.7
2019-Feb-23 13:00N 55°25' E 016°49'0 0.7
2019-Feb-23 12:27N 55°25' E 016°49'1 2.0
2019-Feb-23 12:00N 55°25' E 016°48'2 2.2
2019-Feb-23 11:05N 55°24' E 016°44'5 4.5
2019-Feb-23 10:02N 55°20' E 016°40'3 7.0
2019-Feb-23 09:39N 55°19' E 016°36'16 6.7
2019-Feb-23 07:18N 55°14' E 016°10'6 5.8
2019-Feb-23 06:15N 55°14' E 015°59'1 0.4
2019-Feb-23 03:21N 55°13' E 015°58'14 2.3
2019-Feb-22 21:15N 55°04' E 015°40'35 0.9
2019-Feb-21 05:51N 54°41' E 014°54'  
2019-Feb-18 07:37N 54°46' E 016°55'2 3.4
2019-Feb-18 06:59N 54°46' E 016°51'2 2.6
2019-Feb-18 06:09N 54°44' E 016°49'1 8.3
2019-Feb-18 05:59N 54°43' E 016°50'1 1.5
2019-Feb-18 05:27N 54°42' E 016°50'0 0.4
2019-Feb-18 04:14N 54°42' E 016°50'12 0.8
2019-Feb-17 13:49N 54°53' E 016°49'47 1.9
2019-Feb-16 13:29N 54°54' E 018°11'6 6.0
2019-Feb-16 12:26N 54°53' E 018°22'3 8.1
2019-Feb-16 12:00N 54°51' E 018°27'4 7.9
2019-Feb-16 11:30N 54°48' E 018°32'1 2.3
2019-Feb-16 11:00N 54°49' E 018°31'1 2.9
2019-Feb-16 10:31N 54°50' E 018°30'3 5.1
2019-Feb-16 10:00N 54°49' E 018°33'2 3.1
2019-Feb-16 09:31N 54°49' E 018°35'1 2.9
2019-Feb-16 09:00N 54°50' E 018°36'2 3.2
2019-Feb-16 08:30N 54°52' E 018°34'0 0.5
2019-Feb-16 08:01N 54°51' E 018°34'0 0.4
2019-Feb-16 07:31N 54°51' E 018°34'1 1.3
2019-Feb-16 07:01N 54°51' E 018°36'2 3.3
2019-Feb-16 06:30N 54°53' E 018°34'1 1.8
2019-Feb-16 06:01N 54°52' E 018°34'3 5.7
2019-Feb-16 05:31N 54°49' E 018°34'2 3.2
2019-Feb-16 05:01N 54°48' E 018°32'0 0.4
2019-Feb-16 04:31N 54°48' E 018°32'0 0.4
2019-Feb-16 04:01N 54°48' E 018°32'0 0.5
2019-Feb-16 03:31N 54°48' E 018°31'4 7.1
2019-Feb-16 03:01N 54°46' E 018°37'0 0.1
2019-Feb-16 02:30N 54°46' E 018°36'0 0.6
2019-Feb-16 02:01N 54°47' E 018°36'0 0.6
2019-Feb-16 01:30N 54°47' E 018°36'0 0.6
2019-Feb-16 01:01N 54°47' E 018°35'0 0.7
2019-Feb-16 00:31N 54°47' E 018°35'0 0.7
2019-Feb-16 00:00N 54°47' E 018°34'0 0.7
2019-Feb-15 23:30N 54°47' E 018°34'0 0.7
2019-Feb-15 23:01N 54°48' E 018°33'0 0.8
2019-Feb-15 22:31N 54°48' E 018°33'0 0.7
2019-Feb-15 22:00N 54°48' E 018°32'0 0.6
2019-Feb-15 21:31N 54°48' E 018°32'2 3.0
2019-Feb-15 21:00N 54°48' E 018°34'3 6.4
2019-Feb-15 20:30N 54°46' E 018°39'0 0.7
2019-Feb-15 20:01N 54°46' E 018°38'0 0.7
2019-Feb-15 19:31N 54°46' E 018°38'0 0.7
2019-Feb-15 19:01N 54°46' E 018°37'0 0.7
2019-Feb-15 18:31N 54°47' E 018°37'0 0.8
2019-Feb-15 18:01N 54°47' E 018°36'0 0.9
2019-Feb-15 17:30N 54°47' E 018°35'0 0.8
2019-Feb-15 17:01N 54°47' E 018°35'0 0.9
2019-Feb-15 16:30N 54°48' E 018°34'1 2.0
2019-Feb-15 16:00N 54°47' E 018°36'2 4.4
2019-Feb-15 15:30N 54°46' E 018°39'2 4.4
2019-Feb-15 15:01N 54°46' E 018°43'0 0.8
2019-Feb-15 14:30N 54°46' E 018°44'0 1.0
2019-Feb-15 14:00N 54°46' E 018°43'1 1.7
2019-Feb-15 13:31N 54°47' E 018°43'2 3.5
2019-Feb-15 13:01N 54°49' E 018°42'2 4.2
2019-Feb-15 12:30N 54°47' E 018°43'1 2.7
2019-Feb-15 12:01N 54°45' E 018°44'2 4.7
2019-Feb-15 11:30N 54°44' E 018°47'4 7.9
2019-Feb-15 11:00N 54°42' E 018°53'4 8.2
2019-Feb-15 10:31N 54°40' E 018°59'4 8.1
2019-Feb-15 10:00N 54°37' E 019°04'4 8.3
2019-Feb-15 09:30N 54°36' E 019°11'2 3.2
2019-Feb-15 09:00N 54°35' E 019°13'1 2.8
2019-Feb-15 08:30N 54°35' E 019°11'1 2.1
2019-Feb-15 08:00N 54°35' E 019°09'3 5.6
2019-Feb-15 07:30N 54°36' E 019°13'1 1.9
2019-Feb-15 07:00N 54°36' E 019°12'2 3.1
2019-Feb-15 06:30N 54°36' E 019°09'1 1.7
2019-Feb-15 06:00N 54°35' E 019°08'3 6.2
2019-Feb-15 05:30N 54°32' E 019°08'4 7.4
2019-Feb-15 05:01N 54°28' E 019°08'3 6.5
2019-Feb-15 04:30N 54°25' E 019°08'0 0.5
2019-Feb-15 04:00N 54°25' E 019°08'0 0.7
2019-Feb-15 03:30N 54°25' E 019°07'0 0.7
2019-Feb-15 03:00N 54°25' E 019°07'0 0.7
2019-Feb-15 02:30N 54°26' E 019°06'0 0.6
2019-Feb-15 02:00N 54°26' E 019°06'0 0.5
2019-Feb-15 01:30N 54°26' E 019°05'0 0.6
2019-Feb-15 01:00N 54°26' E 019°05'0 0.5
2019-Feb-15 00:30N 54°26' E 019°04'0 0.4
2019-Feb-15 00:00N 54°26' E 019°04'0 0.3
2019-Feb-14 23:31N 54°26' E 019°04'0 0.3
2019-Feb-14 23:00N 54°26' E 019°04'0 0.3
2019-Feb-14 22:30N 54°26' E 019°03'0 0.3
2019-Feb-14 22:00N 54°26' E 019°03'0 0.4
2019-Feb-14 21:30N 54°26' E 019°03'0 0.5
2019-Feb-14 21:01N 54°26' E 019°02'0 0.4
2019-Feb-14 20:30N 54°26' E 019°02'1 1.6
2019-Feb-14 20:00N 54°25' E 019°03'4 7.3
2019-Feb-14 19:30N 54°23' E 019°08'0 0.5
2019-Feb-14 19:00N 54°23' E 019°07'0 0.7
2019-Feb-14 18:31N 54°23' E 019°07'0 0.8
2019-Feb-14 18:00N 54°24' E 019°06'0 0.9
2019-Feb-14 17:30N 54°24' E 019°06'0 0.9
2019-Feb-14 17:00N 54°24' E 019°05'0 0.9
2019-Feb-14 16:30N 54°24' E 019°04'0 0.9
2019-Feb-14 16:01N 54°24' E 019°04'1 1.4
2019-Feb-14 15:31N 54°24' E 019°02'2 3.2
2019-Feb-14 15:00N 54°25' E 018°60'1 3.0
2019-Feb-14 14:30N 54°24' E 019°02'1 1.7
2019-Feb-14 14:00N 54°24' E 019°04'3 6.7
2019-Feb-14 13:30N 54°23' E 019°09'4 7.7
2019-Feb-14 13:00N 54°23' E 019°16'0 0.9
2019-Feb-14 12:30N 54°23' E 019°15'2 3.2
2019-Feb-14 12:01N 54°23' E 019°12'2 4.4
2019-Feb-14 11:30N 54°23' E 019°16'3 5.1
2019-Feb-14 11:00N 54°25' E 019°20'1 2.5
2019-Feb-14 10:30N 54°25' E 019°18'2 3.2
2019-Feb-14 10:00N 54°24' E 019°15'0 0.4
2019-Feb-14 09:29N 54°24' E 019°15'0 0.7
2019-Feb-14 09:00N 54°25' E 019°15'1 2.1
2019-Feb-14 08:30N 54°25' E 019°16'2 3.4
2019-Feb-14 08:00N 54°25' E 019°19'2 4.4
2019-Feb-14 07:30N 54°24' E 019°16'1 2.9
2019-Feb-14 07:00N 54°25' E 019°13'2 3.3
2019-Feb-14 06:30N 54°25' E 019°10'1 2.3
2019-Feb-14 06:01N 54°24' E 019°12'0 0.7
2019-Feb-14 05:30N 54°24' E 019°11'0 0.9
2019-Feb-14 05:00N 54°24' E 019°11'0 1.0
2019-Feb-14 04:30N 54°25' E 019°10'0 0.9
2019-Feb-14 04:01N 54°25' E 019°09'2 2.1
2019-Feb-14 03:00N 54°23' E 019°11'0 0.8
2019-Feb-14 02:30N 54°23' E 019°11'0 0.8
2019-Feb-14 02:00N 54°23' E 019°10'0 0.9
2019-Feb-14 01:30N 54°24' E 019°10'0 0.9
2019-Feb-14 01:00N 54°24' E 019°09'0 0.9
2019-Feb-14 00:30N 54°24' E 019°08'0 0.8
2019-Feb-14 00:00N 54°24' E 019°08'0 0.8
2019-Feb-13 23:30N 54°24' E 019°07'0 0.8
2019-Feb-13 23:00N 54°24' E 019°06'0 0.8
2019-Feb-13 22:30N 54°25' E 019°06'0 0.8
2019-Feb-13 22:00N 54°25' E 019°05'0 0.9
2019-Feb-13 21:30N 54°25' E 019°04'0 0.9
2019-Feb-13 21:00N 54°25' E 019°04'0 0.9
2019-Feb-13 20:30N 54°25' E 019°03'0 0.8
2019-Feb-13 20:00N 54°26' E 019°02'0 0.9
2019-Feb-13 19:30N 54°26' E 019°02'0 0.7
2019-Feb-13 19:00N 54°26' E 019°02'2 3.3
2019-Feb-13 18:30N 54°26' E 019°05'1 2.9
2019-Feb-13 18:00N 54°26' E 019°08'1 2.6
2019-Feb-13 17:30N 54°26' E 019°10'1 2.1
2019-Feb-13 17:00N 54°26' E 019°12'1 1.9
2019-Feb-13 16:30N 54°26' E 019°13'1 1.7
2019-Feb-13 16:00N 54°26' E 019°15'1 1.4
2019-Feb-13 15:30N 54°26' E 019°16'  

Dump ship's entire track history